Time;durP1;ratioP1;P1;durP2;ratioP2;P2;SDS_P1;SDS_P2;PMS_P1;PMS_P2;Temp;Humidity;BMP_temperature;BMP_pressure;BME280_temperature;BME280_humidity;BME280_pressure;Samples;Min_cycle;Max_cycle;Signal;HPM_P1;HPM_P2
2022/10/02 00:01:10;;;;;;;7.70;1.52;;;;;;;9.93;100.00;100961.94;2063280;28;28842;-73
2022/10/02 00:03:14;;;;;;;10.98;1.38;;;;;;;9.94;100.00;100950.34;2058750;28;35371;-73
2022/10/02 00:04:28;;;;;;;9.40;1.35;;;;;;;9.99;100.00;100944.00;2055453;28;27289;-73
2022/10/02 00:06:02;;;;;;;12.80;1.40;;;;;;;10.02;100.00;100947.50;2054479;28;34601;-73
2022/10/02 00:07:09;;;;;;;8.85;1.35;;;;;;;10.02;100.00;100930.59;2063261;28;35175;-73
2022/10/02 00:08:18;;;;;;;12.18;1.27;;;;;;;10.01;100.00;100936.84;2058195;28;39738;-73
2022/10/02 00:09:32;;;;;;;6.15;1.25;;;;;;;10.01;100.00;100936.84;2055363;28;41014;-73
2022/10/02 00:10:58;;;;;;;8.77;1.17;;;;;;;9.99;100.00;100941.34;2054922;28;30998;-73
2022/10/02 00:12:00;;;;;;;8.85;1.15;;;;;;;10.01;100.00;100947.53;2062487;28;36842;-73
2022/10/02 00:13:10;;;;;;;9.25;1.35;;;;;;;9.99;100.00;100949.38;2060972;28;32682;-73
2022/10/02 00:14:16;;;;;;;5.55;0.90;;;;;;;10.02;100.00;100938.59;2062896;28;32505;-73
2022/10/02 00:15:29;;;;;;;5.45;1.05;;;;;;;9.98;100.00;100940.47;2060897;28;40965;-73
2022/10/02 00:16:44;;;;;;;7.13;1.23;;;;;;;10.00;100.00;100940.44;2062506;28;40181;-73
2022/10/02 00:17:52;;;;;;;9.00;1.15;;;;;;;10.04;100.00;100934.97;2059488;28;35254;-73
2022/10/02 00:18:55;;;;;;;7.70;1.20;;;;;;;10.07;100.00;100942.06;2054723;28;41324;-73
2022/10/02 00:19:59;;;;;;;12.52;1.33;;;;;;;10.10;100.00;100934.88;2054499;28;30384;-73
2022/10/02 00:21:12;;;;;;;7.82;1.13;;;;;;;10.10;100.00;100937.53;2055184;28;34510;-73
2022/10/02 00:22:29;;;;;;;8.48;1.38;;;;;;;10.08;100.00;100927.75;2055119;28;39319;-73
2022/10/02 00:23:42;;;;;;;7.22;1.10;;;;;;;10.09;100.00;100934.91;2055947;28;20394;-72
2022/10/02 00:24:59;;;;;;;4.40;0.60;;;;;;;10.06;100.00;100934.94;2054311;28;32903;-73
2022/10/02 00:26:29;;;;;;;12.73;1.55;;;;;;;10.03;100.00;100935.00;2048298;28;20088;-72
2022/10/02 00:28:02;;;;;;;8.70;1.23;;;;;;;9.98;100.00;100931.53;2054170;28;20051;-73
2022/10/02 00:29:46;;;;;;;6.35;1.33;;;;;;;9.90;100.00;100935.25;2057108;28;20039;-73
2022/10/02 00:31:21;;;;;;;6.80;0.80;;;;;;;9.82;100.00;100939.00;2056517;28;33464;-73
2022/10/02 00:33:16;;;;;;;8.93;1.00;;;;;;;9.78;100.00;100945.31;2056454;28;38680;-72
2022/10/02 00:34:56;;;;;;;7.25;0.98;;;;;;;9.75;100.00;100948.94;2039618;29;39617;-73
2022/10/02 00:36:21;;;;;;;4.88;0.77;;;;;;;9.71;100.00;100944.56;2039875;29;31140;-73
2022/10/02 00:37:45;;;;;;;9.65;1.20;;;;;;;9.68;100.00;100948.16;2031495;29;38926;-73
2022/10/02 00:39:37;;;;;;;5.40;1.00;;;;;;;9.69;100.00;100951.72;2037384;29;31439;-73
2022/10/02 00:40:56;;;;;;;12.10;1.33;;;;;;;9.69;100.00;100957.06;2043746;28;38202;-73
2022/10/02 00:42:53;;;;;;;10.38;1.40;;;;;;;9.66;100.00;100951.78;2056554;28;33924;-72
2022/10/02 00:44:19;;;;;;;8.70;1.30;;;;;;;9.61;100.00;100953.66;2056111;28;30885;-73
2022/10/02 00:46:05;;;;;;;6.45;1.23;;;;;;;9.57;100.00;100955.53;2056455;28;36277;-73
2022/10/02 00:47:41;;;;;;;6.05;1.20;;;;;;;9.53;100.00;100951.16;2039260;29;36200;-73
2022/10/02 00:48:48;;;;;;;11.20;1.23;;;;;;;9.53;100.00;100945.81;2032369;29;20049;-73
2022/10/02 00:50:14;;;;;;;10.63;1.55;;;;;;;9.56;100.00;100953.75;2046143;28;37096;-73
2022/10/02 00:51:51;;;;;;;6.82;1.33;;;;;;;9.55;100.00;100955.53;2065292;28;20872;-73
2022/10/02 00:53:27;;;;;;;10.60;1.70;;;;;;;9.51;100.00;100953.84;2031537;29;43119;-73
2022/10/02 00:54:56;;;;;;;7.00;1.48;;;;;;;9.55;100.00;100949.31;2064963;28;31705;-73
2022/10/02 00:56:46;;;;;;;8.65;1.60;;;;;;;9.57;100.00;100960.88;2055235;28;40850;-72
2022/10/02 00:58:27;;;;;;;11.13;1.80;;;;;;;9.58;100.00;100959.06;2046875;28;32089;-73
2022/10/02 00:59:38;;;;;;;10.52;2.40;;;;;;;9.59;100.00;100951.03;2065294;28;20865;-73
2022/10/02 01:00:56;;;;;;;11.40;2.38;;;;;;;9.58;100.00;100961.75;2056544;28;20047;-73
2022/10/02 01:02:31;;;;;;;8.48;2.13;;;;;;;9.58;100.00;100965.28;2058889;28;35273;-73
2022/10/02 01:03:39;;;;;;;12.25;3.05;;;;;;;9.59;100.00;100961.72;2055674;28;39948;-73
2022/10/02 01:04:46;;;;;;;13.10;3.10;;;;;;;9.63;100.00;100962.53;2052441;28;36966;-72
2022/10/02 01:05:51;;;;;;;15.63;3.45;;;;;;;9.63;100.00;100962.53;2050728;28;20024;-73
2022/10/02 01:06:53;;;;;;;14.57;3.60;;;;;;;9.64;100.00;100953.63;2057055;28;39559;-73
2022/10/02 01:07:56;;;;;;;13.65;3.38;;;;;;;9.66;100.00;100965.16;2071782;28;34203;-73
2022/10/02 01:08:57;;;;;;;12.95;3.20;;;;;;;9.69;100.00;100978.44;2063643;28;35636;-73
2022/10/02 01:09:59;;;;;;;16.98;3.53;;;;;;;9.74;100.00;100984.59;2048018;28;34547;-73
2022/10/02 01:11:03;;;;;;;12.52;4.00;;;;;;;9.78;100.00;100980.97;2056847;28;20994;-73
2022/10/02 01:12:07;;;;;;;17.95;3.58;;;;;;;9.82;100.00;100982.69;2065155;28;20046;-73
2022/10/02 01:13:09;;;;;;;18.52;4.30;;;;;;;9.88;100.00;100968.28;2065342;28;27341;-73
2022/10/02 01:14:12;;;;;;;13.70;4.10;;;;;;;9.87;100.00;100970.09;2055957;28;34575;-72
2022/10/02 01:15:18;;;;;;;13.38;3.70;;;;;;;9.90;100.00;100964.66;2048294;28;34365;-73
2022/10/02 01:16:22;;;;;;;13.13;3.70;;;;;;;9.90;100.00;100982.50;2056549;28;39131;-73
2022/10/02 01:17:32;;;;;;;13.70;4.00;;;;;;;9.93;100.00;100977.13;2064469;28;36470;-73
2022/10/02 01:18:34;;;;;;;15.95;4.63;;;;;;;9.95;100.00;100980.63;2055575;28;37767;-73
2022/10/02 01:19:40;;;;;;;15.00;4.03;;;;;;;9.97;100.00;100973.47;2052857;28;24549;-72
2022/10/02 01:20:49;;;;;;;19.67;4.03;;;;;;;9.99;100.00;100970.75;2055347;28;42179;-73
2022/10/02 01:22:08;;;;;;;15.02;3.67;;;;;;;9.98;100.00;100975.25;2063995;28;28653;-73
2022/10/02 01:23:39;;;;;;;15.00;3.80;;;;;;;10.07;100.00;100968.81;2060409;28;37101;-72
2022/10/02 01:24:47;;;;;;;13.07;3.40;;;;;;;10.13;100.00;100985.59;2048569;28;37520;-72
2022/10/02 01:25:49;;;;;;;18.98;3.58;;;;;;;10.22;100.00;100968.50;2056493;28;30227;-72
2022/10/02 01:26:53;;;;;;;21.42;3.13;;;;;;;10.27;100.00;100966.59;2055814;28;40695;-72
2022/10/02 01:27:57;;;;;;;14.85;3.45;;;;;;;10.31;100.00;100968.31;2055754;28;37758;-72
2022/10/02 01:28:59;;;;;;;13.82;3.17;;;;;;;10.32;100.00;100975.44;2063576;28;34099;-72
2022/10/02 01:30:10;;;;;;;13.23;3.15;;;;;;;10.32;100.00;100972.78;2063306;28;33730;-72
2022/10/02 01:31:14;;;;;;;13.73;2.90;;;;;;;10.32;100.00;100970.09;2055713;28;23653;-71
2022/10/02 01:32:17;;;;;;;12.30;2.85;;;;;;;10.32;100.00;100975.44;2047532;28;33473;-72
2022/10/02 01:33:19;;;;;;;14.23;3.00;;;;;;;10.37;100.00;100982.50;2048052;28;36448;-71
2022/10/02 01:34:22;;;;;;;12.68;2.83;;;;;;;10.39;100.00;100986.00;2063503;28;37234;-73
2022/10/02 01:35:30;;;;;;;16.13;2.53;;;;;;;10.38;100.00;100981.59;2063637;28;20124;-72
2022/10/02 01:36:32;;;;;;;10.82;2.55;;;;;;;10.41;100.00;100976.16;2063872;28;32447;-72
2022/10/02 01:37:40;;;;;;;16.17;2.58;;;;;;;10.38;100.00;100978.91;2062838;28;35255;-73
2022/10/02 01:38:43;;;;;;;15.82;2.22;;;;;;;10.38;100.00;100984.25;2056899;28;32628;-73
2022/10/02 01:39:45;;;;;;;11.73;2.22;;;;;;;10.37;100.00;100983.34;2055008;28;39985;-72
2022/10/02 01:40:46;;;;;;;10.32;2.00;;;;;;;10.37;100.00;100998.53;2055332;28;41577;-72
2022/10/02 01:41:48;;;;;;;15.65;1.90;;;;;;;10.38;100.00;101009.22;2055787;28;30075;-72
2022/10/02 01:42:54;;;;;;;12.38;2.35;;;;;;;10.38;100.00;101013.72;2056372;28;35824;-73
2022/10/02 01:44:00;;;;;;;11.95;2.40;;;;;;;10.39;100.00;101018.13;2055705;28;39661;-72
2022/10/02 01:45:05;;;;;;;11.00;2.30;;;;;;;10.40;100.00;101011.88;2056242;28;37902;-73
2022/10/02 01:46:44;;;;;;;11.80;1.85;;;;;;;10.40;100.00;101004.72;2055812;28;40072;-73
2022/10/02 01:48:36;;;;;;;11.30;1.70;;;;;;;10.38;100.00;101000.31;2056129;28;31567;-72
2022/10/02 01:50:13;;;;;;;10.93;1.50;;;;;;;10.39;100.00;100996.72;2046422;28;34673;-73
2022/10/02 01:52:02;;;;;;;10.00;1.73;;;;;;;10.36;100.00;100992.31;2056609;28;36539;-72
2022/10/02 01:53:25;;;;;;;8.68;1.35;;;;;;;10.32;100.00;100999.53;2056480;28;32566;-73
2022/10/02 01:54:50;;;;;;;9.20;1.75;;;;;;;10.31;100.00;101000.44;2055561;28;34335;-73
2022/10/02 01:56:14;;;;;;;6.50;1.25;;;;;;;10.27;100.00;100982.66;2063551;28;40161;-73
2022/10/02 01:57:45;;;;;;;10.88;1.35;;;;;;;10.23;100.00;100991.66;2057988;28;33302;-73
2022/10/02 01:59:04;;;;;;;8.13;0.98;;;;;;;10.19;100.00;100984.59;2056546;28;20047;-73
2022/10/02 02:00:23;;;;;;;7.93;1.35;;;;;;;10.11;100.00;100981.22;2055321;28;34460;-72
2022/10/02 02:01:24;;;;;;;9.80;1.25;;;;;;;10.08;100.00;100986.63;2063854;28;34686;-73
2022/10/02 02:03:03;;;;;;;5.97;0.80;;;;;;;10.04;100.00;100985.81;2062627;28;21021;-71
2022/10/02 02:04:38;;;;;;;6.97;1.30;;;;;;;9.96;100.00;100997.56;2055971;28;40598;-73
2022/10/02 02:05:53;;;;;;;11.07;1.20;;;;;;;9.96;100.00;100992.22;2053372;28;38607;-72
2022/10/02 02:07:09;;;;;;;4.43;0.77;;;;;;;9.88;100.00;100995.03;2056288;28;36899;-73
2022/10/02 02:08:44;;;;;;;9.38;0.60;;;;;;;9.83;100.00;100986.22;2056009;28;36890;-73
2022/10/02 02:10:36;;;;;;;5.40;0.70;;;;;;;9.80;100.00;100994.28;2055611;28;33788;-73
2022/10/02 02:11:52;;;;;;;8.55;1.13;;;;;;;9.69;100.00;100989.16;2055930;28;32643;-73
2022/10/02 02:13:10;;;;;;;5.60;0.70;;;;;;;9.69;100.00;100991.81;2055335;28;20122;-73
2022/10/02 02:14:20;;;;;;;8.82;1.08;;;;;;;9.64;100.00;100989.25;2063611;28;40342;-73
2022/10/02 02:15:30;;;;;;;9.43;0.90;;;;;;;9.61;100.00;100993.78;2061275;28;37674;-73
2022/10/02 02:16:54;;;;;;;6.82;0.98;;;;;;;9.60;100.00;100992.91;2055034;28;41105;-73
2022/10/02 02:18:27;;;;;;;7.35;1.02;;;;;;;9.58;100.00;100992.00;2063954;28;20904;-73
2022/10/02 02:19:47;;;;;;;4.15;0.68;;;;;;;9.52;100.00;100998.34;2056874;28;40047;-73
2022/10/02 02:20:54;;;;;;;6.38;0.80;;;;;;;9.52;100.00;100998.34;2055432;28;37657;-72
2022/10/02 02:22:20;;;;;;;8.43;1.45;;;;;;;9.48;100.00;100996.66;2063441;28;34456;-73
2022/10/02 02:23:31;;;;;;;7.15;1.30;;;;;;;9.46;100.00;101003.81;2059732;28;20043;-73
2022/10/02 02:24:41;;;;;;;7.65;1.60;;;;;;;9.45;100.00;100996.69;2055784;28;28963;-72
2022/10/02 02:25:50;;;;;;;7.15;1.25;;;;;;;9.39;100.00;100999.50;2055317;28;33667;-73
2022/10/02 02:26:57;;;;;;;11.48;1.85;;;;;;;9.38;100.00;100994.16;2055372;28;23725;-73
2022/10/02 02:28:05;;;;;;;8.57;1.75;;;;;;;9.37;100.00;100995.97;2062866;28;39995;-73
2022/10/02 02:29:09;;;;;;;11.27;2.58;;;;;;;9.39;100.00;101002.16;2061326;28;39492;-73
2022/10/02 02:30:14;;;;;;;15.23;3.00;;;;;;;9.33;100.00;100997.81;2063227;28;35095;-73
2022/10/02 02:31:21;;;;;;;8.73;2.45;;;;;;;9.37;100.00;100995.97;2062498;28;33634;-73
2022/10/02 02:32:30;;;;;;;12.73;3.33;;;;;;;9.33;100.00;100994.22;2056095;28;30515;-73
2022/10/02 02:33:45;;;;;;;12.50;2.67;;;;;;;9.29;100.00;100990.72;2055770;28;33637;-73
2022/10/02 02:35:04;;;;;;;16.98;4.03;;;;;;;9.30;100.00;100995.19;2063986;28;20042;-73
2022/10/02 02:36:15;;;;;;;14.35;4.10;;;;;;;9.31;100.00;100998.72;2059543;28;35783;-73
2022/10/02 02:37:21;;;;;;;19.65;4.93;;;;;;;9.35;100.00;101000.47;2063403;28;21764;-72
2022/10/02 02:38:32;;;;;;;15.60;4.90;;;;;;;9.31;100.00;100996.97;2061384;28;35295;-73
2022/10/02 02:39:48;;;;;;;15.15;4.75;;;;;;;9.30;100.00;100991.63;2054531;28;37414;-73
2022/10/02 02:40:51;;;;;;;18.58;5.75;;;;;;;9.29;100.00;101006.75;2063676;28;33051;-73
2022/10/02 02:42:00;;;;;;;16.63;5.68;;;;;;;9.27;100.00;100997.03;2061019;28;34605;-73
2022/10/02 02:43:09;;;;;;;15.77;6.25;;;;;;;9.28;100.00;100998.81;2054959;28;40093;-73
2022/10/02 02:44:21;;;;;;;13.88;6.25;;;;;;;9.29;100.00;101000.53;2055269;28;33139;-73
2022/10/02 02:45:32;;;;;;;21.17;7.15;;;;;;;9.28;100.00;100996.13;2056203;28;32847;-73
2022/10/02 02:47:03;;;;;;;25.70;7.95;;;;;;;9.26;100.00;101004.16;2054916;28;36967;-73
2022/10/02 02:48:18;;;;;;;19.55;7.35;;;;;;;9.28;100.00;100996.13;2062991;28;31050;-73
2022/10/02 02:49:21;;;;;;;23.60;8.55;;;;;;;9.25;100.00;100997.03;2057724;28;36179;-73
2022/10/02 02:50:34;;;;;;;22.25;8.23;;;;;;;9.28;100.00;101004.16;2062517;28;40116;-73
2022/10/02 02:51:41;;;;;;;20.80;8.85;;;;;;;9.29;100.00;101004.09;2053514;28;35399;-73
2022/10/02 02:53:08;;;;;;;26.63;9.73;;;;;;;9.32;100.00;101001.38;2047565;28;34821;-73
2022/10/02 02:54:28;;;;;;;26.08;10.18;;;;;;;9.40;100.00;100997.69;2055505;28;36971;-73
2022/10/02 02:55:36;;;;;;;31.08;10.02;;;;;;;9.35;100.00;101001.34;2047389;28;33890;-73
2022/10/02 02:56:44;;;;;;;30.63;9.90;;;;;;;9.38;100.00;100989.69;2048253;28;33097;-73
2022/10/02 02:58:01;;;;;;;31.75;10.93;;;;;;;9.43;100.00;100993.19;2055172;28;32890;-73
2022/10/02 02:59:17;;;;;;;34.83;11.05;;;;;;;9.41;100.00;100994.13;2054721;28;40205;-73
2022/10/02 03:00:21;;;;;;;28.50;10.70;;;;;;;9.38;100.00;100995.03;2055348;28;31818;-73
2022/10/02 03:01:23;;;;;;;29.00;10.43;;;;;;;9.40;100.00;100997.69;2046295;28;39593;-73
2022/10/02 03:02:25;;;;;;;32.95;11.27;;;;;;;9.42;100.00;100993.19;2048163;28;20166;-73
2022/10/02 03:03:27;;;;;;;25.02;9.95;;;;;;;9.39;100.00;100999.50;2055833;28;34698;-73
2022/10/02 03:04:31;;;;;;;34.95;10.65;;;;;;;9.39;100.00;100991.47;2055813;28;29150;-73
2022/10/02 03:05:37;;;;;;;22.83;9.57;;;;;;;9.32;100.00;101000.50;2055175;28;38991;-73
2022/10/02 03:06:55;;;;;;;28.42;9.23;;;;;;;9.36;100.00;101002.22;2054964;28;36905;-73
2022/10/02 03:08:02;;;;;;;30.77;10.60;;;;;;;9.35;100.00;101003.13;2063153;28;33055;-73
2022/10/02 03:09:11;;;;;;;25.67;9.88;;;;;;;9.38;100.00;100994.16;2061154;28;36724;-72
2022/10/02 03:10:29;;;;;;;17.90;9.00;;;;;;;9.35;100.00;101000.47;2055389;28;26755;-73
2022/10/02 03:11:52;;;;;;;26.80;10.38;;;;;;;9.36;100.00;101002.22;2062765;28;34787;-73
2022/10/02 03:13:20;;;;;;;30.48;9.65;;;;;;;9.31;100.00;100999.63;2058961;28;36488;-73
2022/10/02 03:14:59;;;;;;;30.73;10.05;;;;;;;9.29;100.00;100997.88;2054980;28;41142;-73
2022/10/02 03:16:20;;;;;;;22.00;8.60;;;;;;;9.29;100.00;101000.53;2055541;28;37873;-72
2022/10/02 03:17:44;;;;;;;25.08;9.32;;;;;;;9.30;100.00;101003.19;2054598;28;33096;-72
2022/10/02 03:19:00;;;;;;;31.33;10.10;;;;;;;9.29;100.00;101008.56;2055570;28;34279;-72
2022/10/02 03:20:40;;;;;;;28.25;9.93;;;;;;;9.27;100.00;101005.91;2055388;28;20043;-72
2022/10/02 03:21:56;;;;;;;26.02;9.20;;;;;;;9.23;100.00;101009.53;2055231;28;37210;-72
2022/10/02 03:23:20;;;;;;;33.75;10.65;;;;;;;9.24;100.00;101005.97;2056126;28;20860;-73
2022/10/02 03:24:30;;;;;;;29.27;9.60;;;;;;;9.27;100.00;101013.06;2055367;28;25874;-73
2022/10/02 03:25:58;;;;;;;23.98;9.02;;;;;;;9.30;100.00;101008.53;2055453;28;20345;-72
2022/10/02 03:27:11;;;;;;;30.08;10.13;;;;;;;9.28;100.00;101014.84;2055047;28;42324;-72
2022/10/02 03:28:30;;;;;;;27.30;10.00;;;;;;;9.25;100.00;101005.06;2046498;28;37712;-72
2022/10/02 03:30:11;;;;;;;21.83;7.85;;;;;;;9.17;100.00;100997.19;2053873;28;20869;-72
2022/10/02 03:31:16;;;;;;;22.08;9.00;;;;;;;9.22;100.00;101004.22;2063185;28;32126;-72
2022/10/02 03:32:19;;;;;;;33.78;9.45;;;;;;;9.25;100.00;101004.19;2060379;28;40911;-72
2022/10/02 03:33:22;;;;;;;30.35;9.23;;;;;;;9.20;100.00;101000.69;2055068;28;32176;-72
2022/10/02 03:34:25;;;;;;;25.30;9.02;;;;;;;9.18;100.00;100996.25;2055171;28;28837;-72
2022/10/02 03:35:28;;;;;;;26.55;8.20;;;;;;;9.13;100.00;100999.91;2054863;28;35088;-72
2022/10/02 03:36:31;;;;;;;22.52;8.52;;;;;;;9.17;100.00;100997.19;2062568;28;37720;-72
2022/10/02 03:37:33;;;;;;;23.65;7.40;;;;;;;9.14;100.00;100997.22;2061996;28;33486;-72
2022/10/02 03:38:36;;;;;;;27.40;8.30;;;;;;;9.15;100.00;101001.66;2054478;28;36273;-72
2022/10/02 03:39:44;;;;;;;25.08;8.43;;;;;;;9.13;100.00;100995.47;2054593;28;34317;-72
2022/10/02 03:40:46;;;;;;;25.80;8.73;;;;;;;9.19;100.00;100997.16;2055581;28;20043;-72
2022/10/02 03:41:48;;;;;;;26.13;9.13;;;;;;;9.16;100.00;101003.41;2055339;28;33038;-72
2022/10/02 03:42:50;;;;;;;27.98;8.90;;;;;;;9.13;100.00;101006.16;2054927;28;32969;-72
2022/10/02 03:43:52;;;;;;;19.52;7.38;;;;;;;9.10;100.00;100992.84;2054662;28;38905;-73
2022/10/02 03:44:54;;;;;;;24.00;7.95;;;;;;;9.11;100.00;100991.91;2054772;28;27179;-72
2022/10/02 03:45:56;;;;;;;25.08;8.63;;;;;;;9.11;100.00;100991.03;2055523;28;37669;-72
2022/10/02 03:46:57;;;;;;;27.10;8.30;;;;;;;9.12;100.00;100999.03;2054214;28;40709;-72
2022/10/02 03:47:59;;;;;;;26.42;7.65;;;;;;;9.09;100.00;100991.06;2054792;28;26945;-72
2022/10/02 03:49:01;;;;;;;21.30;8.18;;;;;;;9.14;100.00;100999.03;2055264;28;31381;-73
2022/10/02 03:50:04;;;;;;;25.50;8.23;;;;;;;9.13;100.00;101005.25;2055548;28;33772;-72
2022/10/02 03:51:05;;;;;;;26.23;9.02;;;;;;;9.15;100.00;100996.31;2055613;28;37416;-72
2022/10/02 03:52:16;;;;;;;32.33;8.00;;;;;;;9.13;100.00;100995.47;2055174;28;38397;-72
2022/10/02 03:53:28;;;;;;;23.55;6.90;;;;;;;9.07;100.00;100997.34;2054570;28;36412;-72
2022/10/02 03:54:36;;;;;;;29.75;7.43;;;;;;;9.06;100.00;101009.84;2062880;28;32746;-72
2022/10/02 03:55:44;;;;;;;24.30;7.80;;;;;;;9.06;100.00;101007.16;2060629;28;36317;-72
2022/10/02 03:56:55;;;;;;;28.60;8.00;;;;;;;9.03;100.00;101009.88;2054290;28;37840;-73
2022/10/02 03:57:58;;;;;;;22.75;7.43;;;;;;;9.12;100.00;101014.19;2054032;28;34241;-71
2022/10/02 03:59:03;;;;;;;26.50;8.10;;;;;;;9.12;100.00;101011.53;2054744;28;31726;-72
2022/10/02 04:00:28;;;;;;;25.42;8.30;;;;;;;9.10;100.00;101011.53;2054155;28;34871;-71
2022/10/02 04:01:36;;;;;;;26.02;8.13;;;;;;;9.07;100.00;101011.56;2054564;28;38308;-72
2022/10/02 04:02:54;;;;;;;27.13;8.18;;;;;;;9.07;100.00;101005.38;2054688;28;33283;-72
2022/10/02 04:04:17;;;;;;;29.80;8.55;;;;;;;9.10;100.00;101008.88;2054336;28;33515;-72
2022/10/02 04:06:12;;;;;;;29.95;7.78;;;;;;;9.14;100.00;100999.88;2055407;28;20824;-72
2022/10/02 04:07:29;;;;;;;21.58;7.10;;;;;;;9.10;100.00;100999.97;2034724;28;39452;-72
2022/10/02 04:08:38;;;;;;;26.60;7.32;;;;;;;9.13;100.00;101000.81;2055381;28;37792;-72
2022/10/02 04:09:46;;;;;;;29.40;8.85;;;;;;;9.16;100.00;100998.06;2054259;28;36897;-73
2022/10/02 04:11:13;;;;;;;35.53;8.95;;;;;;;9.17;100.00;100990.97;2054255;28;36457;-71
2022/10/02 04:12:30;;;;;;;22.08;6.82;;;;;;;9.16;100.00;100989.19;2035705;28;35555;-72
2022/10/02 04:14:24;;;;;;;32.45;9.40;;;;;;;9.15;100.00;100999.00;2048832;28;28514;-73
2022/10/02 04:15:57;;;;;;;32.70;7.82;;;;;;;9.16;100.00;101000.75;2055284;28;32136;-72
2022/10/02 04:17:14;;;;;;;32.80;8.48;;;;;;;9.23;100.00;100998.00;2054639;28;39304;-72
2022/10/02 04:18:31;;;;;;;28.58;7.55;;;;;;;9.21;100.00;101005.16;2063091;28;37127;-72
2022/10/02 04:19:36;;;;;;;26.50;7.85;;;;;;;9.23;100.00;101006.00;2060155;28;35200;-72
2022/10/02 04:21:09;;;;;;;25.67;8.43;;;;;;;9.34;100.00;101007.56;2054456;28;34460;-73
2022/10/02 04:22:26;;;;;;;29.92;8.40;;;;;;;9.35;100.00;101011.16;2055128;28;32248;-72
2022/10/02 04:23:42;;;;;;;32.72;8.40;;;;;;;9.32;100.00;101012.06;2054810;28;33128;-72
2022/10/02 04:24:55;;;;;;;29.38;8.43;;;;;;;9.36;100.00;101007.56;2062058;28;42046;-72
2022/10/02 04:26:16;;;;;;;31.58;9.05;;;;;;;9.40;100.00;101014.59;2059253;28;33447;-72
2022/10/02 04:27:33;;;;;;;29.73;8.60;;;;;;;9.35;100.00;101016.50;2054788;28;41678;-72
2022/10/02 04:28:46;;;;;;;23.83;8.32;;;;;;;9.36;100.00;101020.91;2055211;28;32032;-72
2022/10/02 04:29:56;;;;;;;31.00;8.70;;;;;;;9.38;100.00;101016.41;2062124;28;40833;-72
2022/10/02 04:31:04;;;;;;;35.78;8.30;;;;;;;9.41;100.00;101020.84;2053083;28;38497;-72
2022/10/02 04:32:28;;;;;;;24.40;7.30;;;;;;;9.42;100.00;101017.25;2048234;28;33485;-72
2022/10/02 04:33:31;;;;;;;26.20;8.18;;;;;;;9.44;100.00;101016.34;2055146;28;41826;-72
2022/10/02 04:34:37;;;;;;;28.05;8.35;;;;;;;9.46;100.00;101009.16;2055083;28;37174;-73
2022/10/02 04:36:15;;;;;;;30.60;8.57;;;;;;;9.47;100.00;101012.72;2054770;28;40159;-72
2022/10/02 04:38:01;;;;;;;28.55;7.45;;;;;;;9.52;100.00;101017.06;2054687;28;42235;-73
2022/10/02 04:39:31;;;;;;;24.83;7.85;;;;;;;9.53;100.00;101026.88;2054569;28;34113;-72
2022/10/02 04:41:26;;;;;;;23.95;7.60;;;;;;;9.54;100.00;101023.25;2050123;28;31972;-72
2022/10/02 04:42:49;;;;;;;38.25;8.52;;;;;;;9.58;100.00;101023.22;2055906;28;20051;-72
2022/10/02 04:44:23;;;;;;;29.80;8.23;;;;;;;9.58;100.00;101034.78;2055150;28;35780;-72
2022/10/02 04:46:00;;;;;;;33.33;7.82;;;;;;;9.60;100.00;101038.34;2054336;28;38853;-73
2022/10/02 04:47:10;;;;;;;26.50;8.13;;;;;;;9.62;100.00;101035.63;2054822;28;42728;-73
2022/10/02 04:48:17;;;;;;;27.15;8.77;;;;;;;9.64;100.00;101031.16;2054530;28;35560;-73
2022/10/02 04:50:01;;;;;;;36.03;8.55;;;;;;;9.66;100.00;101042.69;2053920;28;34592;-73
2022/10/02 04:51:37;;;;;;;30.17;8.32;;;;;;;9.71;100.00;101041.69;2021677;29;38140;-73
2022/10/02 04:52:54;;;;;;;34.58;8.40;;;;;;;9.74;100.00;101051.44;2046098;28;43445;-73
2022/10/02 04:54:37;;;;;;;31.65;7.38;;;;;;;9.76;100.00;101073.69;2052646;28;38241;-72
2022/10/02 04:56:07;;;;;;;23.55;6.65;;;;;;;9.75;100.00;101085.31;2043327;28;35288;-72
2022/10/02 04:57:38;;;;;;;;;;;;;;;9.77;100.00;101067.44;2055408;28;33692;-72
2022/10/02 04:59:06;;;;;;;;;;;;;;;9.80;100.00;101067.41;2051630;28;19915;-72
2022/10/02 05:00:20;;;;;;;33.95;8.40;;;;;;;9.82;100.00;101068.25;2055026;28;37110;-72
2022/10/02 05:01:37;;;;;;;27.70;9.75;;;;;;;9.83;100.00;101069.13;2055303;28;20054;-72
2022/10/02 05:03:14;;;;;;;31.52;9.90;;;;;;;9.81;100.00;101063.78;2054718;28;33296;-72
2022/10/02 05:04:48;;;;;;;32.22;9.98;;;;;;;9.79;100.00;101067.41;2054242;28;32872;-72
2022/10/02 05:06:23;;;;;;;34.00;10.77;;;;;;;9.77;100.00;101067.44;2053962;28;36978;-72
2022/10/02 05:07:24;;;;;;;37.00;9.98;;;;;;;9.71;100.00;101067.56;2054762;28;36017;-73
2022/10/02 05:09:05;;;;;;;34.63;9.43;;;;;;;9.66;100.00;101064.06;2054583;28;42168;-73
2022/10/02 05:10:34;;;;;;;29.67;9.27;;;;;;;9.62;100.00;101065.03;2055035;28;31164;-73
2022/10/02 05:11:56;;;;;;;29.65;9.75;;;;;;;9.54;100.00;101066.03;2054670;28;43184;-73
2022/10/02 05:13:11;;;;;;;27.42;8.60;;;;;;;9.50;100.00;101064.31;2064367;28;24743;-73
2022/10/02 05:15:22;;;;;;;31.30;8.45;;;;;;;9.46;100.00;101067.97;2060999;28;34614;-73
2022/10/02 05:16:56;;;;;;;32.60;8.38;;;;;;;9.40;100.00;101068.03;2039328;29;35119;-73
2022/10/02 05:18:22;;;;;;;25.08;7.95;;;;;;;9.33;100.00;101066.38;2039930;29;20273;-72
2022/10/02 05:19:40;;;;;;;30.27;7.90;;;;;;;9.27;100.00;101071.84;2039351;29;39807;-72
2022/10/02 05:21:09;;;;;;;33.38;9.00;;;;;;;9.24;100.00;101064.75;2039656;29;20044;-74
2022/10/02 05:22:54;;;;;;;35.85;9.00;;;;;;;9.24;100.00;101067.44;2048707;28;41651;-73
2022/10/02 05:24:16;;;;;;;31.95;9.43;;;;;;;9.28;100.00;101063.78;2055922;28;39029;-72
2022/10/02 05:25:54;;;;;;;41.38;10.82;;;;;;;9.34;100.00;101068.16;2056030;28;40058;-72
2022/10/02 05:27:17;;;;;;;24.95;8.68;;;;;;;9.28;100.00;101074.47;2055679;28;39089;-73
2022/10/02 05:28:59;;;;;;;33.28;10.02;;;;;;;9.30;100.00;101075.34;2056276;28;29864;-73
2022/10/02 05:30:12;;;;;;;29.88;8.57;;;;;;;9.30;100.00;101072.66;2056393;28;37612;-73
2022/10/02 05:31:35;;;;;;;29.30;7.50;;;;;;;9.34;100.00;101078.84;2056541;28;20130;-72
2022/10/02 05:33:31;;;;;;;25.95;7.63;;;;;;;9.33;100.00;101085.09;2056122;28;36742;-73
2022/10/02 05:35:15;;;;;;;28.30;8.63;;;;;;;9.29;100.00;101086.91;2055517;28;37798;-73
2022/10/02 05:36:39;;;;;;;30.60;8.63;;;;;;;9.29;100.00;101091.38;2056239;28;20106;-73
2022/10/02 05:37:59;;;;;;;33.67;9.35;;;;;;;9.31;100.00;101089.56;2063292;28;39280;-73
2022/10/02 05:39:07;;;;;;;34.65;9.63;;;;;;;9.30;100.00;101079.81;2059178;28;33122;-73
2022/10/02 05:40:36;;;;;;;33.42;11.13;;;;;;;9.32;100.00;101069.97;2056889;28;20878;-73
2022/10/02 05:41:52;;;;;;;33.20;9.98;;;;;;;9.34;100.00;101073.50;2055901;28;38703;-73
2022/10/02 05:43:04;;;;;;;24.95;9.30;;;;;;;9.29;100.00;101072.69;2056284;28;37457;-73
2022/10/02 05:44:26;;;;;;;26.77;9.10;;;;;;;9.29;100.00;101075.34;2056170;28;32357;-72
2022/10/02 05:45:38;;;;;;;30.98;9.45;;;;;;;9.26;100.00;101075.41;2055197;28;34212;-73
2022/10/02 05:47:41;;;;;;;27.80;8.95;;;;;;;9.29;100.00;101070.88;2055735;28;41434;-73
2022/10/02 05:48:57;;;;;;;31.90;8.82;;;;;;;9.23;100.00;101072.78;2052925;28;37014;-73
2022/10/02 05:50:15;;;;;;;34.40;9.95;;;;;;;9.25;100.00;101074.53;2055623;28;29274;-73
2022/10/02 05:51:43;;;;;;;38.30;9.55;;;;;;;9.21;100.00;101071.94;2055767;28;36404;-73
2022/10/02 05:52:59;;;;;;;29.08;8.23;;;;;;;9.15;100.00;101079.13;2056072;28;34613;-72
2022/10/02 05:54:35;;;;;;;22.67;6.93;;;;;;;9.11;100.00;101074.72;2055852;28;40213;-73
2022/10/02 05:55:49;;;;;;;24.80;7.07;;;;;;;9.11;100.00;101081.84;2055351;28;39802;-73
2022/10/02 05:57:09;;;;;;;31.30;8.88;;;;;;;9.13;100.00;101072.03;2055971;28;40070;-73
2022/10/02 05:58:50;;;;;;;34.08;8.70;;;;;;;9.11;100.00;101076.50;2056334;28;29658;-73
2022/10/02 06:00:07;;;;;;;28.73;7.47;;;;;;;9.10;100.00;101082.78;2055598;28;33708;-73